Time;durP1;ratioP1;P1;durP2;ratioP2;P2;SDS_P1;SDS_P2;PMS_P1;PMS_P2;Temp;Humidity;BMP_temperature;BMP_pressure;BME280_temperature;BME280_humidity;BME280_pressure;Samples;Min_cycle;Max_cycle;Signal;HPM_P1;HPM_P2
2021/05/14 00:00:01;;;;;;;8.25;7.05;;;;;;;;;;4974826;28;20511;-66
2021/05/14 00:02:27;;;;;;;10.60;6.53;;;;;;;;;;4974804;28;20038;-66
2021/05/14 00:04:53;;;;;;;8.57;7.50;;;;;;;;;;4974538;28;20034;-66
2021/05/14 00:07:19;;;;;;;7.60;5.40;;;;;;;;;;4975318;28;20102;-65
2021/05/14 00:09:45;;;;;;;8.10;6.93;;;;;;;;;;4974845;28;20022;-66
2021/05/14 00:12:11;;;;;;;8.73;6.38;;;;;;;;;;4974674;28;20054;-66
2021/05/14 00:14:37;;;;;;;6.68;5.53;;;;;;;;;;4974837;28;20077;-66
2021/05/14 00:17:03;;;;;;;6.85;5.30;;;;;;;;;;4974469;28;20464;-66
2021/05/14 00:19:29;;;;;;;8.68;5.82;;;;;;;;;;4974446;28;20030;-66
2021/05/14 00:21:55;;;;;;;6.88;6.03;;;;;;;;;;4974721;28;20030;-66
2021/05/14 00:24:21;;;;;;;7.03;5.18;;;;;;;;;;4975117;28;20404;-66
2021/05/14 00:26:48;;;;;;;12.05;6.05;;;;;;;;;;4974599;28;20049;-65
2021/05/14 00:29:14;;;;;;;9.27;6.25;;;;;;;;;;4974750;28;20068;-66
2021/05/14 00:31:40;;;;;;;5.18;4.75;;;;;;;;;;4974540;28;20026;-66
2021/05/14 00:34:06;;;;;;;7.18;6.00;;;;;;;;;;4973813;28;20038;-65
2021/05/14 00:36:32;;;;;;;6.43;5.25;;;;;;;;;;4975263;28;20031;-66
2021/05/14 00:38:58;;;;;;;9.80;5.65;;;;;;;;;;4975046;28;20027;-66
2021/05/14 00:41:25;;;;;;;6.30;5.53;;;;;;;;;;4974441;28;20539;-66
2021/05/14 00:43:51;;;;;;;6.68;5.30;;;;;;;;;;4974121;28;20125;-66
2021/05/14 00:46:17;;;;;;;7.85;5.72;;;;;;;;;;4974391;28;20081;-66
2021/05/14 00:48:44;;;;;;;6.75;4.70;;;;;;;;;;4974199;28;20061;-66
2021/05/14 00:51:10;;;;;;;7.88;5.30;;;;;;;;;;4974379;28;20464;-66
2021/05/14 00:53:36;;;;;;;5.30;4.07;;;;;;;;;;4974266;28;20038;-66
2021/05/14 00:56:02;;;;;;;4.93;4.47;;;;;;;;;;4974095;28;20023;-66
2021/05/14 00:58:29;;;;;;;7.75;5.40;;;;;;;;;;4974406;28;20457;-66
2021/05/14 01:00:55;;;;;;;6.18;4.65;;;;;;;;;;4974212;28;20481;-65
2021/05/14 01:03:21;;;;;;;7.07;4.65;;;;;;;;;;4973843;28;20081;-66
2021/05/14 01:05:47;;;;;;;9.65;4.20;;;;;;;;;;4973991;28;20023;-81
2021/05/14 01:08:13;;;;;;;5.20;4.47;;;;;;;;;;4974775;28;20027;-66
2021/05/14 01:10:39;;;;;;;5.03;4.25;;;;;;;;;;4974303;28;20488;-66
2021/05/14 01:13:05;;;;;;;4.93;4.15;;;;;;;;;;4974394;28;20120;-66
2021/05/14 01:15:32;;;;;;;4.32;3.65;;;;;;;;;;4974250;28;20029;-66
2021/05/14 01:17:58;;;;;;;6.82;4.30;;;;;;;;;;4973738;28;20472;-66
2021/05/14 01:20:26;;;;;;;4.07;3.58;;;;;;;;;;4974556;28;20492;-66
2021/05/14 01:22:52;;;;;;;6.22;3.15;;;;;;;;;;4974166;28;20125;-66
2021/05/14 01:25:18;;;;;;;3.83;3.53;;;;;;;;;;4974511;28;20030;-65
2021/05/14 01:27:44;;;;;;;4.28;3.88;;;;;;;;;;4973929;28;20034;-65
2021/05/14 01:30:11;;;;;;;3.53;2.83;;;;;;;;;;4973772;28;20416;-66
2021/05/14 01:32:37;;;;;;;4.85;3.20;;;;;;;;;;4973718;28;20019;-66
2021/05/14 01:35:03;;;;;;;3.47;3.17;;;;;;;;;;4974491;28;20066;-65
2021/05/14 01:37:29;;;;;;;5.47;2.95;;;;;;;;;;4973993;28;20035;-65
2021/05/14 01:39:55;;;;;;;3.80;3.25;;;;;;;;;;4973892;28;20030;-66
2021/05/14 01:42:21;;;;;;;6.05;3.55;;;;;;;;;;4974090;28;20069;-66
2021/05/14 01:44:47;;;;;;;3.50;3.20;;;;;;;;;;4974139;28;20070;-65
2021/05/14 01:47:17;;;;;;;5.15;2.72;;;;;;;;;;4975435;28;20026;-66
2021/05/14 01:49:43;;;;;;;3.30;3.00;;;;;;;;;;4977373;28;20035;-66
2021/05/14 01:52:09;;;;;;;3.92;3.10;;;;;;;;;;4976921;28;20026;-66
2021/05/14 01:54:35;;;;;;;4.35;3.17;;;;;;;;;;4977602;28;20018;-65
2021/05/14 01:57:01;;;;;;;3.28;2.88;;;;;;;;;;4977033;28;20464;-65
2021/05/14 01:59:27;;;;;;;3.83;2.80;;;;;;;;;;4977509;28;20088;-66
2021/05/14 02:01:53;;;;;;;2.97;2.67;;;;;;;;;;4976711;28;20376;-66
2021/05/14 02:04:20;;;;;;;3.10;2.80;;;;;;;;;;4977004;28;20077;-66
2021/05/14 02:06:46;;;;;;;3.78;3.08;;;;;;;;;;4977072;28;20384;-65
2021/05/14 02:09:12;;;;;;;2.97;2.47;;;;;;;;;;4976788;28;20027;-66
2021/05/14 02:11:38;;;;;;;3.17;2.72;;;;;;;;;;4976679;28;20385;-65
2021/05/14 02:14:04;;;;;;;3.75;3.15;;;;;;;;;;4976491;28;20053;-66
2021/05/14 02:16:30;;;;;;;3.28;2.97;;;;;;;;;;4976905;28;20019;-66
2021/05/14 02:18:56;;;;;;;4.13;3.13;;;;;;;;;;4976940;28;20121;-66
2021/05/14 02:21:22;;;;;;;3.83;2.42;;;;;;;;;;4976967;28;20444;-66
2021/05/14 02:23:48;;;;;;;4.05;2.55;;;;;;;;;;4976643;28;20038;-66
2021/05/14 02:26:14;;;;;;;3.35;2.30;;;;;;;;;;4976602;28;20055;-65
2021/05/14 02:28:40;;;;;;;4.22;2.28;;;;;;;;;;4976497;28;20030;-66
2021/05/14 02:31:06;;;;;;;4.70;2.47;;;;;;;;;;4976367;28;20528;-66
2021/05/14 02:33:33;;;;;;;5.10;2.50;;;;;;;;;;4976449;28;20057;-66
2021/05/14 02:35:59;;;;;;;2.88;2.38;;;;;;;;;;4976617;28;20023;-66
2021/05/14 02:38:25;;;;;;;5.38;1.98;;;;;;;;;;4976600;28;20023;-66
2021/05/14 02:40:51;;;;;;;3.53;2.40;;;;;;;;;;4976311;28;20388;-65
2021/05/14 02:43:17;;;;;;;2.65;2.08;;;;;;;;;;4976298;28;20181;-66
2021/05/14 02:45:43;;;;;;;2.72;1.90;;;;;;;;;;4976047;28;20027;-66
2021/05/14 02:48:09;;;;;;;3.00;2.72;;;;;;;;;;4975936;28;20085;-66
2021/05/14 02:50:35;;;;;;;4.32;2.65;;;;;;;;;;4976471;28;20034;-66
2021/05/14 02:53:02;;;;;;;2.53;2.10;;;;;;;;;;4976334;28;20027;-66
2021/05/14 02:55:28;;;;;;;2.65;2.33;;;;;;;;;;4976537;28;20027;-66
2021/05/14 02:57:54;;;;;;;2.10;1.98;;;;;;;;;;4975742;28;20031;-66
2021/05/14 03:00:20;;;;;;;2.35;2.13;;;;;;;;;;4975774;28;20031;-66
2021/05/14 03:02:46;;;;;;;2.67;2.03;;;;;;;;;;4975827;28;20030;-65
2021/05/14 03:05:12;;;;;;;1.73;1.63;;;;;;;;;;4976157;28;20097;-65
2021/05/14 03:07:38;;;;;;;2.22;1.90;;;;;;;;;;4976151;28;20027;-65
2021/05/14 03:10:05;;;;;;;2.17;1.77;;;;;;;;;;4975626;28;20487;-66
2021/05/14 03:12:31;;;;;;;3.35;2.30;;;;;;;;;;4975990;28;20059;-66
2021/05/14 03:14:57;;;;;;;2.08;1.83;;;;;;;;;;4975453;28;20066;-65
2021/05/14 03:17:23;;;;;;;2.22;1.83;;;;;;;;;;4975550;28;20050;-65
2021/05/14 03:19:49;;;;;;;3.08;1.55;;;;;;;;;;4975588;28;20026;-66
2021/05/14 03:22:15;;;;;;;2.13;1.65;;;;;;;;;;4975838;28;20026;-66
2021/05/14 03:24:41;;;;;;;1.98;1.65;;;;;;;;;;4975394;28;20038;-66
2021/05/14 03:27:07;;;;;;;1.90;1.80;;;;;;;;;;4975370;28;20031;-66
2021/05/14 03:29:33;;;;;;;2.50;1.70;;;;;;;;;;4975500;28;20027;-66
2021/05/14 03:32:00;;;;;;;1.52;1.42;;;;;;;;;;4975095;28;20031;-66
2021/05/14 03:34:26;;;;;;;2.45;2.17;;;;;;;;;;4975589;28;20411;-66
2021/05/14 03:36:52;;;;;;;2.08;1.88;;;;;;;;;;4975691;28;20023;-66
2021/05/14 03:39:22;;;;;;;2.78;2.25;;;;;;;;;;4975832;28;20033;-66
2021/05/14 03:41:51;;;;;;;3.38;2.30;;;;;;;;;;4975242;28;20479;-68
2021/05/14 03:44:17;;;;;;;3.67;2.72;;;;;;;;;;4974903;28;20040;-67
2021/05/14 03:46:43;;;;;;;2.92;2.58;;;;;;;;;;4975247;28;20027;-66
2021/05/14 03:49:09;;;;;;;2.53;2.30;;;;;;;;;;4975017;28;20027;-66
2021/05/14 03:51:36;;;;;;;3.25;2.63;;;;;;;;;;4974920;28;20527;-66
2021/05/14 03:54:02;;;;;;;3.30;2.38;;;;;;;;;;4974966;28;20034;-66
2021/05/14 03:56:28;;;;;;;3.75;2.75;;;;;;;;;;4974906;28;20113;-66
2021/05/14 03:58:54;;;;;;;2.55;2.35;;;;;;;;;;4974919;28;20487;-66
2021/05/14 04:01:20;;;;;;;3.75;2.10;;;;;;;;;;4975398;28;20066;-66
2021/05/14 04:03:46;;;;;;;2.63;2.42;;;;;;;;;;4975125;28;20039;-66
2021/05/14 04:06:12;;;;;;;2.80;2.10;;;;;;;;;;4974627;28;20055;-66
2021/05/14 04:08:39;;;;;;;2.40;2.20;;;;;;;;;;4974815;28;20027;-66
2021/05/14 04:11:28;;;;;;;3.60;2.35;;;;;;;;;;4974521;28;20483;-66
2021/05/14 04:16:37;;;;;;;2.72;2.28;;;;;;;;;;4960847;28;20031;-66
2021/05/14 04:19:03;;;;;;;4.57;2.53;;;;;;;;;;4974801;28;20432;-66
2021/05/14 04:21:29;;;;;;;2.78;2.20;;;;;;;;;;4974744;28;20023;-67
2021/05/14 04:23:55;;;;;;;2.50;2.15;;;;;;;;;;4974079;28;20510;-67
2021/05/14 04:26:21;;;;;;;2.15;1.83;;;;;;;;;;4974468;28;20088;-66
2021/05/14 04:28:48;;;;;;;2.53;1.83;;;;;;;;;;4974718;28;20019;-65
2021/05/14 04:31:14;;;;;;;3.20;1.63;;;;;;;;;;4974687;28;20030;-66
2021/05/14 04:33:40;;;;;;;2.72;1.80;;;;;;;;;;4974761;28;20469;-66
2021/05/14 04:36:06;;;;;;;5.43;2.47;;;;;;;;;;4974108;28;20027;-66
2021/05/14 04:38:32;;;;;;;2.00;1.80;;;;;;;;;;4974276;28;20022;-66
2021/05/14 04:40:58;;;;;;;5.22;2.05;;;;;;;;;;4974337;28;20491;-66
2021/05/14 04:43:24;;;;;;;5.13;1.58;;;;;;;;;;4973134;28;20034;-66
2021/05/14 04:45:50;;;;;;;2.97;2.08;;;;;;;;;;4973540;28;20026;-67
2021/05/14 04:48:17;;;;;;;3.75;2.28;;;;;;;;;;4974442;28;20110;-66
2021/05/14 04:50:43;;;;;;;2.10;1.77;;;;;;;;;;4974537;28;20023;-66
2021/05/14 04:53:10;;;;;;;3.03;2.03;;;;;;;;;;4973979;28;20388;-67
2021/05/14 04:55:37;;;;;;;1.85;1.63;;;;;;;;;;4974319;28;20038;-67
2021/05/14 04:58:03;;;;;;;2.22;1.48;;;;;;;;;;4973848;28;20536;-75
2021/05/14 05:00:29;;;;;;;2.58;1.67;;;;;;;;;;4973410;28;20393;-66
2021/05/14 05:02:55;;;;;;;2.83;1.40;;;;;;;;;;4974089;28;20058;-65
2021/05/14 05:05:21;;;;;;;4.32;1.70;;;;;;;;;;4974106;28;20113;-65
2021/05/14 05:07:47;;;;;;;12.25;1.88;;;;;;;;;;4973685;28;20023;-77
2021/05/14 05:10:14;;;;;;;3.10;1.55;;;;;;;;;;4973915;28;20374;-65
2021/05/14 05:12:40;;;;;;;3.00;1.80;;;;;;;;;;4973894;28;20110;-67
2021/05/14 05:15:06;;;;;;;4.30;1.75;;;;;;;;;;4973578;28;20023;-66
2021/05/14 05:17:32;;;;;;;2.15;1.90;;;;;;;;;;4973531;28;20114;-65
2021/05/14 05:19:58;;;;;;;1.77;1.52;;;;;;;;;;4973811;28;20027;-65
2021/05/14 05:22:25;;;;;;;6.95;2.20;;;;;;;;;;4975914;28;20023;-66
2021/05/14 05:24:51;;;;;;;2.67;1.98;;;;;;;;;;4977582;28;20481;-66
2021/05/14 05:27:17;;;;;;;6.10;1.98;;;;;;;;;;4977876;28;20030;-65
2021/05/14 05:29:43;;;;;;;2.78;2.25;;;;;;;;;;4977886;28;20023;-66
2021/05/14 05:32:09;;;;;;;8.15;2.88;;;;;;;;;;4977456;28;20073;-66
2021/05/14 05:34:35;;;;;;;3.70;2.58;;;;;;;;;;4977400;28;20027;-65
2021/05/14 05:37:01;;;;;;;2.13;1.85;;;;;;;;;;4977078;28;20102;-66
2021/05/14 05:39:27;;;;;;;3.35;1.80;;;;;;;;;;4976669;28;20026;-69
2021/05/14 05:41:53;;;;;;;5.63;2.65;;;;;;;;;;4977161;28;20050;-66
2021/05/14 05:44:19;;;;;;;3.25;2.30;;;;;;;;;;4977614;28;20133;-65
2021/05/14 05:46:45;;;;;;;3.30;1.98;;;;;;;;;;4977559;28;20030;-65
2021/05/14 05:49:12;;;;;;;7.22;1.85;;;;;;;;;;4977249;28;20073;-66
2021/05/14 05:51:38;;;;;;;10.40;2.35;;;;;;;;;;4977300;28;20033;-66
2021/05/14 05:54:05;;;;;;;2.80;1.95;;;;;;;;;;4976825;28;20030;-66
2021/05/14 05:56:31;;;;;;;13.45;2.20;;;;;;;;;;4977034;28;20039;-66
2021/05/14 05:58:57;;;;;;;5.32;2.35;;;;;;;;;;4976931;28;20019;-65
2021/05/14 06:01:23;;;;;;;3.58;2.05;;;;;;;;;;4977474;28;20457;-66
2021/05/14 06:03:49;;;;;;;1.85;1.40;;;;;;;;;;4977009;28;20531;-66
2021/05/14 06:06:15;;;;;;;2.63;2.08;;;;;;;;;;4976499;28;20026;-67
2021/05/14 06:08:42;;;;;;;1.60;1.48;;;;;;;;;;4977099;28;20109;-65
2021/05/14 06:11:08;;;;;;;2.25;2.00;;;;;;;;;;4977246;28;20473;-66
2021/05/14 06:13:34;;;;;;;3.03;2.25;;;;;;;;;;4977177;28;20516;-67
2021/05/14 06:16:02;;;;;;;1.88;1.45;;;;;;;;;;4976375;28;20065;-67
2021/05/14 06:18:34;;;;;;;2.10;1.90;;;;;;;;;;4976823;28;20022;-66
2021/05/14 06:21:00;;;;;;;2.33;2.08;;;;;;;;;;4976791;28;20038;-65
2021/05/14 06:23:26;;;;;;;4.85;2.03;;;;;;;;;;4976744;28;20130;-65
2021/05/14 06:25:52;;;;;;;4.63;1.92;;;;;;;;;;4976407;28;20023;-65
2021/05/14 06:28:21;;;;;;;2.75;2.05;;;;;;;;;;4976867;28;20031;-65
2021/05/14 06:30:47;;;;;;;6.88;1.98;;;;;;;;;;4976692;28;20023;-65
2021/05/14 06:33:13;;;;;;;6.10;2.28;;;;;;;;;;4976273;28;20030;-65
2021/05/14 06:35:40;;;;;;;1.70;1.55;;;;;;;;;;4976272;28;20381;-65
2021/05/14 06:38:06;;;;;;;2.00;1.75;;;;;;;;;;4976285;28;20027;-65
2021/05/14 06:40:32;;;;;;;5.53;1.63;;;;;;;;;;4977081;28;20027;-65
2021/05/14 06:42:59;;;;;;;2.75;1.73;;;;;;;;;;4976542;28;20162;-65
2021/05/14 06:45:25;;;;;;;1.92;1.67;;;;;;;;;;4976422;28;20026;-65
2021/05/14 06:47:51;;;;;;;3.67;2.00;;;;;;;;;;4975485;28;20027;-65
2021/05/14 06:50:17;;;;;;;8.35;2.15;;;;;;;;;;4976188;28;20105;-66
2021/05/14 06:52:43;;;;;;;2.28;2.08;;;;;;;;;;4976362;28;20027;-65
2021/05/14 06:55:09;;;;;;;5.15;1.73;;;;;;;;;;4976134;28;20158;-65
2021/05/14 06:57:36;;;;;;;3.92;2.17;;;;;;;;;;4975729;28;20034;-65
2021/05/14 07:00:02;;;;;;;1.90;1.60;;;;;;;;;;4975269;28;20082;-65
2021/05/14 07:02:28;;;;;;;1.98;1.67;;;;;;;;;;4975647;28;20043;-65
2021/05/14 07:04:54;;;;;;;2.60;1.80;;;;;;;;;;4975642;28;20038;-65
2021/05/14 07:07:21;;;;;;;6.70;2.08;;;;;;;;;;4975693;28;20542;-65
2021/05/14 07:09:47;;;;;;;7.95;3.45;;;;;;;;;;4975538;28;20477;-65
2021/05/14 07:12:13;;;;;;;12.48;4.78;;;;;;;;;;4975948;28;20046;-66
2021/05/14 07:14:39;;;;;;;20.38;7.03;;;;;;;;;;4975878;28;20108;-65
2021/05/14 07:17:05;;;;;;;16.02;6.25;;;;;;;;;;4975744;28;20061;-65
2021/05/14 07:19:31;;;;;;;13.05;5.78;;;;;;;;;;4975421;28;20042;-66
2021/05/14 07:21:57;;;;;;;16.27;6.18;;;;;;;;;;4975614;28;20030;-65
2021/05/14 07:24:23;;;;;;;27.40;7.63;;;;;;;;;;4975637;28;20045;-65
2021/05/14 07:26:50;;;;;;;27.00;7.32;;;;;;;;;;4975241;28;20457;-65
2021/05/14 07:29:16;;;;;;;22.27;6.40;;;;;;;;;;4975386;28;20029;-65
2021/05/14 07:31:42;;;;;;;12.35;5.85;;;;;;;;;;4975445;28;20390;-65
2021/05/14 07:34:08;;;;;;;17.40;6.93;;;;;;;;;;4975265;28;20041;-65
2021/05/14 07:36:34;;;;;;;12.90;5.70;;;;;;;;;;4975417;28;20034;-65
2021/05/14 07:39:00;;;;;;;11.05;5.05;;;;;;;;;;4975531;28;20030;-66
2021/05/14 07:41:26;;;;;;;9.57;4.72;;;;;;;;;;4975665;28;20031;-64
2021/05/14 07:43:53;;;;;;;12.45;5.72;;;;;;;;;;4974438;28;20085;-65
2021/05/14 07:46:19;;;;;;;11.32;5.18;;;;;;;;;;4974974;28;20022;-65
2021/05/14 07:48:47;;;;;;;10.27;4.85;;;;;;;;;;4974881;28;20054;-66
2021/05/14 07:51:13;;;;;;;10.27;4.85;;;;;;;;;;4975630;28;20037;-65
2021/05/14 07:53:39;;;;;;;8.88;5.32;;;;;;;;;;4975063;28;20468;-65
2021/05/14 07:56:05;;;;;;;8.68;4.40;;;;;;;;;;4974889;28;20441;-66
2021/05/14 07:58:32;;;;;;;10.35;5.13;;;;;;;;;;4975216;28;20027;-66
2021/05/14 08:00:58;;;;;;;7.57;4.95;;;;;;;;;;4974860;28;20030;-64
2021/05/14 08:03:24;;;;;;;9.23;4.70;;;;;;;;;;4974481;28;20066;-65
2021/05/14 08:05:50;;;;;;;7.22;4.22;;;;;;;;;;4974564;28;20138;-65
2021/05/14 08:08:18;;;;;;;9.98;4.32;;;;;;;;;;4975034;28;20110;-66
2021/05/14 08:10:44;;;;;;;8.20;3.95;;;;;;;;;;4974826;28;20027;-66
2021/05/14 08:13:10;;;;;;;7.25;3.88;;;;;;;;;;4975530;28;20065;-66
2021/05/14 08:15:39;;;;;;;7.88;4.05;;;;;;;;;;4974790;28;20489;-66
2021/05/14 08:18:05;;;;;;;8.27;3.83;;;;;;;;;;4974254;28;20377;-66
2021/05/14 08:20:31;;;;;;;8.00;4.60;;;;;;;;;;4974576;28;20030;-66
2021/05/14 08:22:57;;;;;;;6.70;4.10;;;;;;;;;;4974131;28;20086;-66
2021/05/14 08:25:23;;;;;;;7.15;3.63;;;;;;;;;;4974372;28;20045;-66
2021/05/14 08:27:49;;;;;;;11.77;4.22;;;;;;;;;;4974395;28;20019;-67
2021/05/14 08:30:16;;;;;;;11.15;3.75;;;;;;;;;;4974912;28;20531;-66
2021/05/14 08:32:42;;;;;;;8.05;3.50;;;;;;;;;;4974235;28;20031;-67
2021/05/14 08:35:09;;;;;;;6.03;3.28;;;;;;;;;;4974709;28;20031;-66
2021/05/14 08:37:36;;;;;;;6.10;3.08;;;;;;;;;;4974311;28;20019;-66
2021/05/14 08:40:03;;;;;;;6.18;4.10;;;;;;;;;;4974113;28;20031;-66
2021/05/14 08:42:29;;;;;;;4.55;4.10;;;;;;;;;;4974310;28;20416;-66
2021/05/14 08:44:56;;;;;;;7.05;3.83;;;;;;;;;;4974327;28;20039;-66
2021/05/14 08:47:22;;;;;;;14.55;3.45;;;;;;;;;;4973833;28;20027;-67
2021/05/14 08:49:48;;;;;;;6.95;3.40;;;;;;;;;;4974165;28;20038;-67
2021/05/14 08:52:16;;;;;;;5.70;4.18;;;;;;;;;;4974935;28;20493;-66
2021/05/14 08:54:44;;;;;;;6.22;3.72;;;;;;;;;;4974398;28;20027;-66
2021/05/14 08:57:10;;;;;;;4.45;3.70;;;;;;;;;;4977743;28;20034;-66
2021/05/14 08:59:37;;;;;;;8.63;7.75;;;;;;;;;;4978352;28;20421;-66
2021/05/14 09:02:03;;;;;;;6.35;5.75;;;;;;;;;;4977679;28;20158;-67
2021/05/14 09:04:30;;;;;;;8.13;7.43;;;;;;;;;;4977743;28;20039;-66
2021/05/14 09:06:56;;;;;;;9.52;6.07;;;;;;;;;;4978565;28;20023;-66
2021/05/14 09:09:23;;;;;;;5.38;4.93;;;;;;;;;;4978281;28;20027;-66
2021/05/14 09:11:51;;;;;;;8.10;6.15;;;;;;;;;;4977966;28;20364;-67
2021/05/14 09:14:33;;;;;;;8.40;7.07;;;;;;;;;;4977916;28;20492;-66
2021/05/14 09:17:08;;;;;;;11.57;6.32;;;;;;;;;;4978160;28;20039;-66
2021/05/14 09:19:35;;;;;;;11.48;7.22;;;;;;;;;;4977762;28;20023;-66
2021/05/14 09:22:09;;;;;;;7.97;6.72;;;;;;;;;;4977774;28;20044;-65
2021/05/14 09:24:36;;;;;;;15.30;5.68;;;;;;;;;;4974315;28;20031;-65
2021/05/14 09:27:12;;;;;;;10.48;6.15;;;;;;;;;;4977429;28;20042;-66
2021/05/14 09:29:38;;;;;;;6.38;4.75;;;;;;;;;;4977585;28;20456;-65
2021/05/14 09:32:20;;;;;;;11.43;5.82;;;;;;;;;;4977256;28;20121;-65
2021/05/14 09:34:48;;;;;;;10.55;6.40;;;;;;;;;;4977863;28;20085;-65
2021/05/14 09:37:14;;;;;;;8.30;5.75;;;;;;;;;;4977565;28;20046;-65
2021/05/14 09:39:40;;;;;;;8.95;5.53;;;;;;;;;;4977410;28;20030;-65
2021/05/14 09:42:06;;;;;;;5.95;5.18;;;;;;;;;;4976607;28;20464;-65
2021/05/14 09:44:32;;;;;;;9.55;5.82;;;;;;;;;;4977803;28;20038;-65
2021/05/14 09:46:59;;;;;;;6.70;5.13;;;;;;;;;;4977936;28;20033;-65
2021/05/14 09:49:27;;;;;;;8.15;5.63;;;;;;;;;;4977509;28;20022;-65
2021/05/14 09:51:54;;;;;;;8.98;5.40;;;;;;;;;;4977095;28;20026;-66
2021/05/14 09:54:40;;;;;;;8.70;5.10;;;;;;;;;;4976933;28;20030;-65
2021/05/14 09:57:34;;;;;;;7.13;4.88;;;;;;;;;;4962861;28;20430;-65
2021/05/14 10:00:03;;;;;;;8.43;5.75;;;;;;;;;;4976868;28;20133;-66
2021/05/14 10:02:31;;;;;;;7.03;5.20;;;;;;;;;;4976885;28;20023;-66
2021/05/14 10:04:57;;;;;;;8.18;5.22;;;;;;;;;;4977029;28;20039;-66
2021/05/14 10:07:25;;;;;;;6.47;4.68;;;;;;;;;;4976045;28;20022;-66
2021/05/14 10:09:53;;;;;;;9.25;5.38;;;;;;;;;;4976569;28;20385;-66
2021/05/14 10:12:19;;;;;;;8.13;5.25;;;;;;;;;;4976615;28;20125;-66
2021/05/14 10:14:46;;;;;;;6.63;4.97;;;;;;;;;;4976651;28;20081;-65
2021/05/14 10:17:12;;;;;;;8.55;4.97;;;;;;;;;;4976826;28;20046;-66
2021/05/14 10:19:38;;;;;;;6.68;5.00;;;;;;;;;;4976851;28;20465;-65
2021/05/14 10:22:04;;;;;;;7.88;4.88;;;;;;;;;;4976494;28;20023;-65
2021/05/14 10:24:38;;;;;;;5.97;4.32;;;;;;;;;;4976680;28;20041;-65
2021/05/14 10:27:24;;;;;;;7.60;5.43;;;;;;;;;;4976724;28;20081;-65
2021/05/14 10:29:52;;;;;;;6.35;4.82;;;;;;;;;;4961776;28;20488;-66
2021/05/14 10:32:38;;;;;;;6.13;5.00;;;;;;;;;;4977427;28;20037;-65
2021/05/14 10:35:04;;;;;;;4.95;4.22;;;;;;;;;;4962472;28;20055;-65
2021/05/14 10:37:46;;;;;;;6.63;4.80;;;;;;;;;;4976318;28;20027;-65
2021/05/14 10:40:33;;;;;;;8.23;5.35;;;;;;;;;;4975987;28;20023;-66
2021/05/14 10:43:00;;;;;;;9.32;5.35;;;;;;;;;;4962525;28;20027;-65
2021/05/14 10:45:35;;;;;;;7.13;4.50;;;;;;;;;;4976321;28;20453;-66
2021/05/14 10:48:01;;;;;;;7.13;5.07;;;;;;;;;;4976219;28;20033;-65
2021/05/14 10:50:31;;;;;;;7.97;4.75;;;;;;;;;;4976449;28;20373;-66
2021/05/14 10:53:17;;;;;;;5.75;4.57;;;;;;;;;;4975781;28;20082;-65
2021/05/14 10:55:43;;;;;;;6.13;4.50;;;;;;;;;;4961897;28;20054;-65
2021/05/14 10:58:09;;;;;;;6.38;4.88;;;;;;;;;;4975605;28;20029;-65
2021/05/14 11:00:36;;;;;;;4.88;4.40;;;;;;;;;;4976243;28;20425;-66
2021/05/14 11:03:18;;;;;;;6.40;4.93;;;;;;;;;;4975854;28;20022;-65
2021/05/14 11:05:45;;;;;;;;;;;;;;;;;;4976107;28;20468;-65
2021/05/14 11:08:11;;;;;;;7.47;4.47;;;;;;;;;;4975706;28;19917;-65
2021/05/14 11:10:39;;;;;;;4.53;4.13;;;;;;;;;;4976231;28;20023;-66
2021/05/14 11:13:25;;;;;;;6.90;4.35;;;;;;;;;;4975561;28;20113;-66
2021/05/14 11:15:51;;;;;;;8.23;4.70;;;;;;;;;;4961022;28;20133;-67
2021/05/14 11:18:21;;;;;;;6.60;4.60;;;;;;;;;;4970656;28;20074;-70
2021/05/14 11:20:48;;;;;;;9.93;4.40;;;;;;;;;;4989483;28;20098;-66
2021/05/14 11:23:34;;;;;;;12.60;5.82;;;;;;;;;;4975182;28;20173;-66
2021/05/14 11:26:00;;;;;;;10.55;5.40;;;;;;;;;;4958441;28;20519;-66
2021/05/14 11:28:47;;;;;;;9.48;4.93;;;;;;;;;;4993985;28;20030;-66
2021/05/14 11:31:21;;;;;;;9.88;5.53;;;;;;;;;;4971908;28;20031;-68
2021/05/14 11:33:47;;;;;;;8.30;5.10;;;;;;;;;;4974573;28;20468;-67
2021/05/14 11:36:14;;;;;;;9.43;5.20;;;;;;;;;;4974740;28;20037;-67
2021/05/14 11:38:47;;;;;;;7.82;4.20;;;;;;;;;;4974873;28;20038;-68
2021/05/14 11:41:15;;;;;;;10.98;4.65;;;;;;;;;;4973411;28;20038;-66
2021/05/14 11:43:51;;;;;;;21.63;5.10;;;;;;;;;;4974969;28;20054;-66
2021/05/14 11:46:17;;;;;;;11.77;5.45;;;;;;;;;;4975168;28;20477;-66
2021/05/14 11:48:44;;;;;;;7.82;5.30;;;;;;;;;;4974721;28;20121;-66
2021/05/14 11:51:10;;;;;;;9.93;5.60;;;;;;;;;;4972990;28;20023;-67
2021/05/14 11:53:36;;;;;;;8.30;4.65;;;;;;;;;;4974427;28;20087;-66
2021/05/14 11:56:03;;;;;;;10.32;4.15;;;;;;;;;;4974451;28;20110;-65
2021/05/14 11:58:30;;;;;;;8.77;4.00;;;;;;;;;;4973897;28;20019;-67
2021/05/14 12:00:57;;;;;;;7.07;4.22;;;;;;;;;;4971138;28;20432;-69
2021/05/14 12:03:24;;;;;;;11.25;4.68;;;;;;;;;;4973796;28;20072;-67
2021/05/14 12:05:51;;;;;;;10.43;5.22;;;;;;;;;;4974631;28;20117;-68
2021/05/14 12:08:18;;;;;;;12.50;5.60;;;;;;;;;;4974397;28;20034;-67
2021/05/14 12:10:55;;;;;;;10.48;4.15;;;;;;;;;;4973056;28;20579;-67
2021/05/14 12:13:22;;;;;;;8.48;4.63;;;;;;;;;;4961541;28;20069;-66
2021/05/14 12:16:08;;;;;;;12.65;4.65;;;;;;;;;;4955045;29;20086;-67
2021/05/14 12:18:35;;;;;;;9.93;4.50;;;;;;;;;;4921579;29;20453;-67
2021/05/14 12:21:02;;;;;;;5.88;4.20;;;;;;;;;;4939940;28;20031;-67
2021/05/14 12:23:29;;;;;;;10.07;3.45;;;;;;;;;;4955394;29;20095;-67
2021/05/14 12:26:00;;;;;;;11.88;4.78;;;;;;;;;;4955052;29;20089;-68
2021/05/14 12:28:34;;;;;;;9.27;4.60;;;;;;;;;;4955308;29;20365;-68
2021/05/14 12:31:02;;;;;;;8.15;3.90;;;;;;;;;;4953393;28;20031;-71
2021/05/14 12:33:28;;;;;;;9.48;4.25;;;;;;;;;;4955626;29;20032;-67
2021/05/14 12:35:56;;;;;;;14.57;4.55;;;;;;;;;;4954792;29;20024;-67
2021/05/14 12:38:42;;;;;;;8.20;4.97;;;;;;;;;;4954864;29;20387;-67
2021/05/14 12:41:25;;;;;;;9.23;4.47;;;;;;;;;;4953766;28;20027;-66
2021/05/14 12:44:06;;;;;;;8.57;4.07;;;;;;;;;;4954539;29;20123;-67
2021/05/14 12:46:32;;;;;;;6.97;3.58;;;;;;;;;;4955384;29;20031;-66
2021/05/14 12:49:18;;;;;;;6.65;3.65;;;;;;;;;;4954553;29;20026;-67
2021/05/14 12:51:44;;;;;;;8.48;3.92;;;;;;;;;;4939011;29;20078;-67
2021/05/14 12:54:10;;;;;;;5.03;3.45;;;;;;;;;;4954195;29;20031;-68
2021/05/14 12:56:36;;;;;;;5.75;3.60;;;;;;;;;;4955032;29;20545;-67
2021/05/14 12:59:02;;;;;;;8.23;3.88;;;;;;;;;;4955607;29;20054;-67
2021/05/14 13:01:29;;;;;;;7.35;3.65;;;;;;;;;;4953376;28;20477;-66
2021/05/14 13:04:10;;;;;;;3.33;2.75;;;;;;;;;;4954751;29;20067;-66
2021/05/14 13:06:36;;;;;;;4.50;3.58;;;;;;;;;;4954577;29;20121;-66
2021/05/14 13:09:21;;;;;;;6.90;4.18;;;;;;;;;;4955261;29;20035;-66
2021/05/14 13:11:47;;;;;;;8.40;4.30;;;;;;;;;;4954122;28;20028;-66
2021/05/14 13:14:13;;;;;;;6.70;3.97;;;;;;;;;;4973895;28;20031;-65
2021/05/14 13:16:39;;;;;;;5.70;3.40;;;;;;;;;;4974162;28;20380;-67
2021/05/14 13:19:05;;;;;;;5.85;3.60;;;;;;;;;;4974079;28;20035;-65
2021/05/14 13:21:32;;;;;;;8.82;3.88;;;;;;;;;;4972451;28;20676;-66
2021/05/14 13:23:58;;;;;;;3.92;3.47;;;;;;;;;;4973616;28;20035;-67
2021/05/14 13:26:24;;;;;;;4.82;3.30;;;;;;;;;;4974473;28;20054;-66
2021/05/14 13:28:50;;;;;;;7.18;3.90;;;;;;;;;;4973691;28;20029;-67
2021/05/14 13:31:19;;;;;;;7.78;3.60;;;;;;;;;;4972733;28;20027;-66
2021/05/14 13:33:45;;;;;;;4.32;3.92;;;;;;;;;;4973540;28;20046;-68
2021/05/14 13:36:11;;;;;;;4.90;4.05;;;;;;;;;;4975759;28;20018;-65
2021/05/14 13:38:37;;;;;;;4.80;3.03;;;;;;;;;;4982689;28;20034;-68
2021/05/14 13:41:03;;;;;;;6.68;3.78;;;;;;;;;;4976032;28;20331;-66
2021/05/14 13:43:30;;;;;;;9.07;4.00;;;;;;;;;;4975315;28;20034;-65
2021/05/14 13:45:56;;;;;;;9.32;4.22;;;;;;;;;;4976968;28;20050;-65
2021/05/14 13:48:22;;;;;;;8.23;4.43;;;;;;;;;;4975128;28;20030;-67
2021/05/14 13:50:48;;;;;;;5.40;4.00;;;;;;;;;;4977104;28;20108;-65
2021/05/14 13:53:14;;;;;;;4.85;3.78;;;;;;;;;;4992197;28;20033;-66
2021/05/14 13:55:41;;;;;;;4.63;3.30;;;;;;;;;;4980458;28;20484;-66
2021/05/14 13:58:07;;;;;;;3.88;3.28;;;;;;;;;;4982896;28;20054;-67
2021/05/14 14:00:34;;;;;;;4.85;3.90;;;;;;;;;;4977088;28;20034;-67
2021/05/14 14:03:01;;;;;;;6.95;3.88;;;;;;;;;;4988936;28;20117;-67
2021/05/14 14:05:27;;;;;;;5.22;4.15;;;;;;;;;;4996138;28;20026;-66
2021/05/14 14:07:53;;;;;;;6.20;4.00;;;;;;;;;;4992257;28;20027;-65
2021/05/14 14:10:21;;;;;;;7.15;3.40;;;;;;;;;;4976648;28;20481;-65
2021/05/14 14:12:47;;;;;;;4.38;3.78;;;;;;;;;;4968092;28;20055;-67
2021/05/14 14:15:13;;;;;;;5.40;3.85;;;;;;;;;;4957656;29;20023;-66
2021/05/14 14:17:39;;;;;;;6.38;3.78;;;;;;;;;;4955435;28;20032;-68
2021/05/14 14:20:06;;;;;;;5.30;4.40;;;;;;;;;;4971902;28;20035;-67
2021/05/14 14:22:32;;;;;;;5.10;4.00;;;;;;;;;;4976355;28;20531;-67
2021/05/14 14:24:58;;;;;;;5.45;3.95;;;;;;;;;;4976305;28;20043;-67
2021/05/14 14:27:27;;;;;;;4.00;3.45;;;;;;;;;;4975142;28;20480;-67
2021/05/14 14:29:54;;;;;;;7.15;4.18;;;;;;;;;;4975823;28;20050;-67
2021/05/14 14:32:21;;;;;;;4.55;3.25;;;;;;;;;;4976029;28;20097;-75
2021/05/14 14:34:47;;;;;;;4.15;3.25;;;;;;;;;;4975936;28;20031;-67
2021/05/14 14:37:14;;;;;;;3.67;3.00;;;;;;;;;;4961077;28;20111;-70
2021/05/14 14:39:40;;;;;;;3.47;3.17;;;;;;;;;;4956603;29;20429;-66
2021/05/14 14:42:06;;;;;;;4.05;3.03;;;;;;;;;;4956007;29;20023;-70
2021/05/14 14:44:32;;;;;;;8.95;4.43;;;;;;;;;;4955185;29;20366;-69